Time;durP1;ratioP1;P1;durP2;ratioP2;P2;SDS_P1;SDS_P2;PMS_P1;PMS_P2;Temp;Humidity;BMP_temperature;BMP_pressure;BME280_temperature;BME280_humidity;BME280_pressure;Samples;Min_cycle;Max_cycle;Signal;HPM_P1;HPM_P2
2021/09/16 00:16:47;;;;;;;3.35;1.75;;;;;;;;;;4633489;28;20200;-64
2021/09/16 00:19:13;;;;;;;4.78;2.00;;;;;;;;;;4149397;34;20104;-63
2021/09/16 00:21:39;;;;;;;3.00;2.20;;;;;;;;;;4150329;34;20609;-66
2021/09/16 00:24:05;;;;;;;3.75;1.73;;;;;;;;;;4150103;34;20201;-66
2021/09/16 00:26:31;;;;;;;3.37;1.83;;;;;;;;;;4150373;34;20231;-68
2021/09/16 00:28:57;;;;;;;7.32;1.87;;;;;;;;;;4150170;34;20121;-65
2021/09/16 00:31:22;;;;;;;2.22;1.65;;;;;;;;;;4149791;34;20235;-68
2021/09/16 00:33:48;;;;;;;2.10;1.50;;;;;;;;;;4150053;34;20483;-64
2021/09/16 00:36:14;;;;;;;2.67;1.60;;;;;;;;;;4148971;34;20222;-67
2021/09/16 00:38:40;;;;;;;2.92;1.60;;;;;;;;;;4137801;34;20115;-64
2021/09/16 00:41:07;;;;;;;2.72;1.80;;;;;;;;;;4150090;34;20211;-68
2021/09/16 00:43:33;;;;;;;3.08;1.55;;;;;;;;;;4150282;34;20183;-66
2021/09/16 00:46:05;;;;;;;3.50;1.73;;;;;;;;;;4150134;34;20479;-65
2021/09/16 00:48:31;;;;;;;4.12;1.92;;;;;;;;;;4150082;34;20451;-65
2021/09/16 00:50:57;;;;;;;2.80;1.60;;;;;;;;;;4149861;34;20213;-65
2021/09/16 00:53:24;;;;;;;1.62;1.52;;;;;;;;;;4149935;34;20209;-70
2021/09/16 00:55:49;;;;;;;2.53;1.60;;;;;;;;;;4148499;34;20503;-67
2021/09/16 00:58:15;;;;;;;3.00;1.70;;;;;;;;;;4148587;34;20474;-63
2021/09/16 01:00:41;;;;;;;2.78;1.92;;;;;;;;;;4148841;34;20135;-65
2021/09/16 01:03:07;;;;;;;3.50;1.73;;;;;;;;;;4149765;34;20242;-63
2021/09/16 01:05:33;;;;;;;7.55;2.95;;;;;;;;;;4149992;34;20590;-64
2021/09/16 01:07:59;;;;;;;3.47;1.92;;;;;;;;;;4149759;34;20119;-67
2021/09/16 01:10:25;;;;;;;3.08;1.95;;;;;;;;;;4150006;34;20099;-64
2021/09/16 01:12:51;;;;;;;4.30;2.30;;;;;;;;;;4149872;34;20134;-63
2021/09/16 01:15:17;;;;;;;6.90;2.40;;;;;;;;;;4149713;34;20112;-63
2021/09/16 01:17:44;;;;;;;10.68;3.08;;;;;;;;;;4149412;34;20150;-67
2021/09/16 01:20:11;;;;;;;6.37;2.67;;;;;;;;;;4147912;34;20191;-67
2021/09/16 01:22:36;;;;;;;6.78;2.85;;;;;;;;;;4149856;34;20540;-66
2021/09/16 01:25:04;;;;;;;8.05;2.85;;;;;;;;;;4149549;34;20123;-63
2021/09/16 01:27:29;;;;;;;5.32;2.62;;;;;;;;;;4149756;34;20107;-65
2021/09/16 01:29:55;;;;;;;5.93;3.28;;;;;;;;;;4149656;34;20145;-66
2021/09/16 01:32:21;;;;;;;8.13;2.78;;;;;;;;;;4149907;34;20264;-68
2021/09/16 01:34:47;;;;;;;8.32;3.30;;;;;;;;;;4147693;34;20550;-63
2021/09/16 01:37:13;;;;;;;7.28;3.25;;;;;;;;;;4149635;34;20183;-69
2021/09/16 01:39:39;;;;;;;6.93;3.25;;;;;;;;;;4149491;34;20107;-65
2021/09/16 01:42:05;;;;;;;11.93;3.30;;;;;;;;;;4149443;34;20441;-65
2021/09/16 01:44:33;;;;;;;8.52;3.22;;;;;;;;;;4149288;34;20107;-67
2021/09/16 01:47:02;;;;;;;7.53;3.55;;;;;;;;;;4147990;34;20107;-65
2021/09/16 01:49:30;;;;;;;7.87;2.92;;;;;;;;;;4149341;34;20452;-64
2021/09/16 01:51:56;;;;;;;6.30;3.30;;;;;;;;;;4147829;34;20106;-67
2021/09/16 01:54:22;;;;;;;6.22;3.20;;;;;;;;;;4148300;34;20127;-65
2021/09/16 01:56:48;;;;;;;9.82;3.12;;;;;;;;;;4149201;34;20192;-66
2021/09/16 01:59:14;;;;;;;7.68;2.83;;;;;;;;;;4149528;34;20103;-65
2021/09/16 02:01:40;;;;;;;8.98;3.12;;;;;;;;;;4149301;34;20215;-63
2021/09/16 02:04:06;;;;;;;5.85;3.55;;;;;;;;;;4149219;34;20135;-65
2021/09/16 02:06:31;;;;;;;8.75;3.30;;;;;;;;;;4149246;34;20142;-66
2021/09/16 02:08:57;;;;;;;8.75;3.33;;;;;;;;;;4149499;34;20121;-68
2021/09/16 02:11:23;;;;;;;5.78;3.47;;;;;;;;;;4150113;34;20210;-67
2021/09/16 02:13:49;;;;;;;6.50;3.05;;;;;;;;;;4151561;34;20100;-66
2021/09/16 02:16:15;;;;;;;13.40;3.33;;;;;;;;;;4151071;34;20115;-65
2021/09/16 02:18:41;;;;;;;7.53;3.42;;;;;;;;;;4151036;34;20103;-67
2021/09/16 02:21:07;;;;;;;7.85;4.00;;;;;;;;;;4149845;34;20118;-65
2021/09/16 02:23:33;;;;;;;4.78;2.75;;;;;;;;;;4151270;34;20118;-68
2021/09/16 02:25:58;;;;;;;6.20;3.55;;;;;;;;;;4149896;34;20133;-68
2021/09/16 02:28:24;;;;;;;5.15;3.33;;;;;;;;;;4149808;34;20138;-64
2021/09/16 02:30:50;;;;;;;12.95;2.87;;;;;;;;;;4149693;34;20130;-69
2021/09/16 02:33:16;;;;;;;5.18;2.60;;;;;;;;;;4151035;34;20107;-68
2021/09/16 02:35:42;;;;;;;4.40;3.22;;;;;;;;;;4151031;34;20115;-65
2021/09/16 02:38:08;;;;;;;3.67;2.40;;;;;;;;;;4151390;34;20540;-65
2021/09/16 02:40:34;;;;;;;4.40;2.25;;;;;;;;;;4150704;34;20142;-69
2021/09/16 02:43:00;;;;;;;6.07;2.37;;;;;;;;;;4150248;34;20110;-65
2021/09/16 02:45:25;;;;;;;3.42;2.20;;;;;;;;;;4150970;34;20547;-64
2021/09/16 02:47:51;;;;;;;3.67;2.58;;;;;;;;;;4150021;34;20218;-68
2021/09/16 02:50:17;;;;;;;3.62;2.45;;;;;;;;;;4151281;34;20403;-67
2021/09/16 02:52:43;;;;;;;6.30;2.78;;;;;;;;;;4150874;34;20118;-65
2021/09/16 02:55:09;;;;;;;3.10;2.58;;;;;;;;;;4150966;34;20455;-71
2021/09/16 02:57:35;;;;;;;3.45;2.30;;;;;;;;;;4149566;34;20219;-70
2021/09/16 03:00:01;;;;;;;6.57;2.60;;;;;;;;;;4150849;34;20223;-68
2021/09/16 03:02:27;;;;;;;6.40;2.45;;;;;;;;;;4149738;34;20142;-64
2021/09/16 03:04:53;;;;;;;5.80;2.25;;;;;;;;;;4149424;34;20127;-67
2021/09/16 03:07:18;;;;;;;3.05;2.20;;;;;;;;;;4148977;34;20122;-64
2021/09/16 03:09:44;;;;;;;6.07;2.42;;;;;;;;;;4149356;34;20107;-66
2021/09/16 03:12:10;;;;;;;4.03;2.80;;;;;;;;;;4150473;34;20099;-65
2021/09/16 03:14:36;;;;;;;2.87;2.17;;;;;;;;;;4149137;34;20102;-66
2021/09/16 03:17:02;;;;;;;2.45;2.20;;;;;;;;;;4150490;34;20564;-66
2021/09/16 03:19:28;;;;;;;4.90;2.33;;;;;;;;;;4150923;34;20478;-65
2021/09/16 03:21:54;;;;;;;3.90;2.70;;;;;;;;;;4149984;34;20121;-70
2021/09/16 03:24:20;;;;;;;3.83;2.30;;;;;;;;;;4150917;34;20523;-69
2021/09/16 03:26:45;;;;;;;9.15;3.03;;;;;;;;;;4148899;34;20153;-67
2021/09/16 03:29:11;;;;;;;5.80;2.83;;;;;;;;;;4149492;34;20150;-65
2021/09/16 03:31:37;;;;;;;6.15;2.60;;;;;;;;;;4147860;34;20190;-64
2021/09/16 03:34:03;;;;;;;6.93;2.78;;;;;;;;;;4150796;34;20110;-67
2021/09/16 03:36:29;;;;;;;5.85;3.35;;;;;;;;;;4150814;34;20111;-67
2021/09/16 03:38:55;;;;;;;7.68;3.22;;;;;;;;;;4150609;34;20127;-65
2021/09/16 03:41:21;;;;;;;6.18;3.72;;;;;;;;;;4149394;34;20540;-67
2021/09/16 03:43:47;;;;;;;3.97;2.85;;;;;;;;;;4150739;34;20123;-68
2021/09/16 03:46:12;;;;;;;12.02;3.10;;;;;;;;;;4150599;34;20450;-64
2021/09/16 03:48:38;;;;;;;5.15;2.80;;;;;;;;;;4150714;34;20107;-65
2021/09/16 03:51:04;;;;;;;2.50;2.00;;;;;;;;;;4150487;34;20142;-65
2021/09/16 03:53:30;;;;;;;4.95;2.15;;;;;;;;;;4150519;34;20139;-67
2021/09/16 03:55:56;;;;;;;3.10;2.40;;;;;;;;;;4148858;34;20122;-67
2021/09/16 03:58:22;;;;;;;4.05;1.92;;;;;;;;;;4150435;34;20125;-66
2021/09/16 04:00:47;;;;;;;8.35;2.80;;;;;;;;;;4150629;34;20119;-67
2021/09/16 04:03:13;;;;;;;9.38;2.20;;;;;;;;;;4150477;34;20122;-66
2021/09/16 04:05:40;;;;;;;4.85;2.28;;;;;;;;;;4150104;34;20105;-67
2021/09/16 04:08:06;;;;;;;6.57;2.70;;;;;;;;;;4148822;34;20096;-65
2021/09/16 04:10:31;;;;;;;7.10;2.95;;;;;;;;;;4150610;34;20153;-66
2021/09/16 04:12:57;;;;;;;10.63;3.55;;;;;;;;;;4150181;34;20115;-66
2021/09/16 04:15:23;;;;;;;12.55;4.50;;;;;;;;;;4150309;34;20115;-66
2021/09/16 04:17:49;;;;;;;9.23;3.92;;;;;;;;;;4150021;34;20142;-65
2021/09/16 04:20:15;;;;;;;10.70;3.85;;;;;;;;;;4150218;34;20138;-67
2021/09/16 04:22:41;;;;;;;17.37;5.12;;;;;;;;;;4150120;34;20119;-67
2021/09/16 04:25:07;;;;;;;9.25;3.65;;;;;;;;;;4148812;34;20119;-67
2021/09/16 04:27:33;;;;;;;14.27;4.00;;;;;;;;;;4150295;34;20106;-67
2021/09/16 04:29:59;;;;;;;24.87;6.37;;;;;;;;;;4150078;34;20507;-67
2021/09/16 04:32:25;;;;;;;11.35;3.83;;;;;;;;;;4149619;34;20521;-65
2021/09/16 04:34:51;;;;;;;10.05;3.00;;;;;;;;;;4148626;34;20131;-67
2021/09/16 04:37:17;;;;;;;5.87;3.50;;;;;;;;;;4150109;34;20542;-67
2021/09/16 04:39:43;;;;;;;7.95;2.97;;;;;;;;;;4150000;34;20088;-66
2021/09/16 04:42:09;;;;;;;13.60;3.35;;;;;;;;;;4150098;34;20223;-67
2021/09/16 04:44:35;;;;;;;9.82;3.45;;;;;;;;;;4148562;34;20138;-65
2021/09/16 04:47:01;;;;;;;11.32;4.07;;;;;;;;;;4150378;34;20138;-67
2021/09/16 04:49:27;;;;;;;12.27;3.62;;;;;;;;;;4150037;34;20118;-67
2021/09/16 04:51:53;;;;;;;6.30;2.67;;;;;;;;;;4149935;34;20563;-68
2021/09/16 04:54:19;;;;;;;4.12;2.20;;;;;;;;;;4149917;34;20341;-68
2021/09/16 04:56:45;;;;;;;2.42;1.80;;;;;;;;;;4149826;34;20106;-64
2021/09/16 04:59:11;;;;;;;1.70;1.60;;;;;;;;;;4149902;34;20484;-68
2021/09/16 05:01:37;;;;;;;5.25;1.80;;;;;;;;;;4149841;34;20111;-65
2021/09/16 05:04:03;;;;;;;4.70;2.08;;;;;;;;;;4149902;34;20128;-67
2021/09/16 05:06:29;;;;;;;1.90;1.65;;;;;;;;;;4149807;34;20133;-65
2021/09/16 05:08:54;;;;;;;3.80;2.35;;;;;;;;;;4149786;34;20119;-64
2021/09/16 05:11:20;;;;;;;5.37;2.20;;;;;;;;;;4149618;34;20490;-68
2021/09/16 05:13:46;;;;;;;6.07;2.33;;;;;;;;;;4149729;34;20550;-64
2021/09/16 05:16:12;;;;;;;3.05;1.95;;;;;;;;;;4149821;34;20142;-68
2021/09/16 05:18:38;;;;;;;3.95;2.20;;;;;;;;;;4149837;34;20206;-68
2021/09/16 05:21:03;;;;;;;2.92;2.00;;;;;;;;;;4149859;34;20115;-66
2021/09/16 05:23:29;;;;;;;4.75;2.15;;;;;;;;;;4149620;34;20205;-66
2021/09/16 05:25:55;;;;;;;3.28;2.00;;;;;;;;;;4149560;34;20126;-67
2021/09/16 05:28:21;;;;;;;3.12;1.70;;;;;;;;;;4149886;34;20542;-66
2021/09/16 05:30:47;;;;;;;3.00;2.05;;;;;;;;;;4149300;34;20194;-66
2021/09/16 05:33:13;;;;;;;4.65;1.70;;;;;;;;;;4146006;34;20255;-64
2021/09/16 05:35:39;;;;;;;2.55;1.70;;;;;;;;;;4147379;34;20143;-65
2021/09/16 05:38:05;;;;;;;1.85;1.60;;;;;;;;;;4148433;34;20215;-66
2021/09/16 05:40:31;;;;;;;3.90;1.20;;;;;;;;;;4149116;34;20540;-64
2021/09/16 05:42:57;;;;;;;1.50;1.40;;;;;;;;;;4149608;34;20190;-66
2021/09/16 05:45:23;;;;;;;3.20;1.62;;;;;;;;;;4151043;34;20540;-67
2021/09/16 05:47:49;;;;;;;2.05;1.60;;;;;;;;;;4151520;34;20142;-67
2021/09/16 05:50:15;;;;;;;2.45;1.65;;;;;;;;;;4151507;34;20126;-67
2021/09/16 05:52:40;;;;;;;4.95;1.98;;;;;;;;;;4151857;34;20118;-65
2021/09/16 05:55:09;;;;;;;4.40;1.90;;;;;;;;;;4150060;34;20103;-62
2021/09/16 05:57:35;;;;;;;2.90;2.25;;;;;;;;;;4151785;34;20541;-64
2021/09/16 06:00:01;;;;;;;5.95;2.35;;;;;;;;;;4151365;34;20464;-66
2021/09/16 06:02:27;;;;;;;4.53;2.85;;;;;;;;;;4151616;34;20107;-66
2021/09/16 06:04:52;;;;;;;2.70;2.10;;;;;;;;;;4151338;34;20098;-65
2021/09/16 06:07:18;;;;;;;3.10;2.47;;;;;;;;;;4151395;34;20107;-66
2021/09/16 06:09:44;;;;;;;4.00;2.00;;;;;;;;;;4151553;34;20149;-65
2021/09/16 06:12:10;;;;;;;3.40;1.87;;;;;;;;;;4151344;34;20194;-66
2021/09/16 06:14:36;;;;;;;3.62;2.00;;;;;;;;;;4151231;34;20494;-66
2021/09/16 06:17:02;;;;;;;3.47;2.10;;;;;;;;;;4151117;34;20212;-65
2021/09/16 06:19:28;;;;;;;4.53;2.28;;;;;;;;;;4151509;34;20115;-66
2021/09/16 06:21:54;;;;;;;4.18;1.90;;;;;;;;;;4151254;34;20143;-66
2021/09/16 06:24:19;;;;;;;2.92;2.20;;;;;;;;;;4149995;34;20218;-66
2021/09/16 06:26:45;;;;;;;5.15;2.03;;;;;;;;;;4151327;34;20203;-66
2021/09/16 06:29:11;;;;;;;6.12;2.05;;;;;;;;;;4151229;34;20125;-64
2021/09/16 06:31:37;;;;;;;4.10;1.87;;;;;;;;;;4151181;34;20126;-65
2021/09/16 06:34:03;;;;;;;2.35;2.00;;;;;;;;;;4151354;34;20122;-66
2021/09/16 06:36:29;;;;;;;3.05;2.00;;;;;;;;;;4151081;34;20519;-64
2021/09/16 06:38:55;;;;;;;2.53;1.90;;;;;;;;;;4151379;34;20575;-67
2021/09/16 06:41:21;;;;;;;3.67;2.28;;;;;;;;;;4151324;34;20174;-64
2021/09/16 06:43:47;;;;;;;4.10;1.65;;;;;;;;;;4150996;34;20478;-68
2021/09/16 06:46:13;;;;;;;6.53;1.85;;;;;;;;;;4149508;34;20184;-65
2021/09/16 06:48:38;;;;;;;7.72;2.00;;;;;;;;;;4151189;34;20227;-69
2021/09/16 06:51:04;;;;;;;5.57;1.95;;;;;;;;;;4150745;34;20130;-69
2021/09/16 06:53:30;;;;;;;2.85;1.80;;;;;;;;;;4149586;34;20150;-66
2021/09/16 06:55:56;;;;;;;1.95;1.55;;;;;;;;;;4149195;34;20106;-62
2021/09/16 06:58:22;;;;;;;4.40;1.90;;;;;;;;;;4149819;34;20146;-67
2021/09/16 07:00:48;;;;;;;3.33;1.62;;;;;;;;;;4150821;34;20118;-68
2021/09/16 07:03:14;;;;;;;3.28;2.10;;;;;;;;;;4150674;34;20154;-63
2021/09/16 07:05:40;;;;;;;3.58;2.08;;;;;;;;;;4150243;34;20126;-65
2021/09/16 07:08:06;;;;;;;2.60;1.80;;;;;;;;;;4150744;34;20153;-68
2021/09/16 07:10:32;;;;;;;2.87;1.70;;;;;;;;;;4150889;34;20137;-67
2021/09/16 07:12:57;;;;;;;4.43;1.75;;;;;;;;;;4150506;34;20123;-63
2021/09/16 07:15:23;;;;;;;2.35;1.62;;;;;;;;;;4150736;34;20105;-63
2021/09/16 07:17:49;;;;;;;1.73;1.50;;;;;;;;;;4150670;34;20119;-63
2021/09/16 07:20:15;;;;;;;3.25;1.70;;;;;;;;;;4150919;34;20118;-63
2021/09/16 07:22:41;;;;;;;1.40;1.30;;;;;;;;;;4150653;34;20553;-65
2021/09/16 07:25:08;;;;;;;6.05;1.95;;;;;;;;;;4150540;34;20118;-65
2021/09/16 07:27:34;;;;;;;2.95;1.55;;;;;;;;;;4150517;34;20219;-69
2021/09/16 07:30:00;;;;;;;2.97;1.80;;;;;;;;;;4149180;34;20455;-65
2021/09/16 07:32:25;;;;;;;3.72;1.80;;;;;;;;;;4150875;34;20095;-65
2021/09/16 07:34:51;;;;;;;3.62;2.40;;;;;;;;;;4150674;34;20564;-69
2021/09/16 07:37:17;;;;;;;3.03;2.05;;;;;;;;;;4149438;34;20139;-64
2021/09/16 07:39:43;;;;;;;6.22;1.70;;;;;;;;;;4150566;34;20129;-65
2021/09/16 07:42:09;;;;;;;3.87;1.90;;;;;;;;;;4150388;34;20138;-64
2021/09/16 07:44:35;;;;;;;3.75;1.73;;;;;;;;;;4150519;34;20158;-65
2021/09/16 07:47:01;;;;;;;2.45;1.50;;;;;;;;;;4150373;34;20138;-67
2021/09/16 07:49:27;;;;;;;3.62;1.70;;;;;;;;;;4150619;34;20126;-64
2021/09/16 07:51:53;;;;;;;4.95;1.77;;;;;;;;;;4150214;34;20103;-69
2021/09/16 07:54:19;;;;;;;1.80;1.70;;;;;;;;;;4150418;34;20218;-65
2021/09/16 07:56:45;;;;;;;6.30;2.03;;;;;;;;;;4150302;34;20359;-66
2021/09/16 07:59:11;;;;;;;6.75;1.90;;;;;;;;;;4150433;34;20133;-67
2021/09/16 08:01:37;;;;;;;3.65;1.90;;;;;;;;;;4150513;34;20149;-68
2021/09/16 08:04:05;;;;;;;4.25;2.00;;;;;;;;;;4150580;34;20163;-65
2021/09/16 08:06:31;;;;;;;3.22;1.80;;;;;;;;;;4149605;34;20191;-68
2021/09/16 08:08:57;;;;;;;2.05;1.60;;;;;;;;;;4150335;34;20126;-65
2021/09/16 08:11:24;;;;;;;2.37;1.80;;;;;;;;;;4150260;34;20621;-66
2021/09/16 08:13:51;;;;;;;4.35;1.67;;;;;;;;;;4149023;34;20111;-65
2021/09/16 08:16:18;;;;;;;2.90;1.80;;;;;;;;;;4149963;34;20112;-66
2021/09/16 08:18:44;;;;;;;1.77;1.60;;;;;;;;;;4150325;34;20122;-64
2021/09/16 08:21:13;;;;;;;1.73;1.50;;;;;;;;;;4150122;34;20118;-68
2021/09/16 08:23:38;;;;;;;5.50;1.60;;;;;;;;;;4148888;34;20133;-64
2021/09/16 08:26:04;;;;;;;2.12;1.30;;;;;;;;;;4150170;34;20120;-68
2021/09/16 08:28:30;;;;;;;3.45;1.90;;;;;;;;;;4149059;34;20292;-65
2021/09/16 08:30:56;;;;;;;3.87;1.60;;;;;;;;;;4150212;34;20125;-68
2021/09/16 08:33:22;;;;;;;1.80;1.62;;;;;;;;;;4137831;34;20210;-66
2021/09/16 08:35:49;;;;;;;1.90;1.40;;;;;;;;;;4148891;34;20511;-64
2021/09/16 08:38:15;;;;;;;1.35;1.25;;;;;;;;;;4150177;34;20091;-66
2021/09/16 08:40:41;;;;;;;2.12;1.80;;;;;;;;;;4150259;34;20126;-65
2021/09/16 08:43:08;;;;;;;3.35;1.42;;;;;;;;;;4149876;34;20671;-66
2021/09/16 08:45:34;;;;;;;3.33;1.35;;;;;;;;;;4149884;34;20162;-65
2021/09/16 08:48:00;;;;;;;1.73;1.37;;;;;;;;;;4149969;34;20118;-65
2021/09/16 08:50:26;;;;;;;1.58;1.20;;;;;;;;;;4150115;34;20198;-66
2021/09/16 08:52:52;;;;;;;1.37;1.17;;;;;;;;;;4137494;34;20123;-65
2021/09/16 08:55:19;;;;;;;1.15;1.05;;;;;;;;;;4149942;34;20250;-65
2021/09/16 08:57:46;;;;;;;2.03;1.30;;;;;;;;;;4150040;34;20563;-65
2021/09/16 09:00:20;;;;;;;1.05;1.05;;;;;;;;;;4149751;34;20130;-63
2021/09/16 09:02:47;;;;;;;2.08;1.67;;;;;;;;;;4149627;34;20127;-64
2021/09/16 09:05:13;;;;;;;1.80;1.23;;;;;;;;;;4150001;34;20106;-64
2021/09/16 09:08:00;;;;;;;1.80;1.20;;;;;;;;;;4149722;34;20127;-65
2021/09/16 09:10:42;;;;;;;1.25;1.15;;;;;;;;;;4149723;34;20107;-65
2021/09/16 09:13:14;;;;;;;2.05;1.77;;;;;;;;;;4149303;34;20142;-64
2021/09/16 09:15:42;;;;;;;2.42;1.65;;;;;;;;;;4149517;34;20110;-64
2021/09/16 09:18:18;;;;;;;1.70;1.42;;;;;;;;;;4148428;34;20133;-64
2021/09/16 09:21:00;;;;;;;2.37;1.70;;;;;;;;;;4150297;34;20125;-65
2021/09/16 09:23:37;;;;;;;2.12;1.70;;;;;;;;;;4151202;34;20170;-65
2021/09/16 09:26:29;;;;;;;3.92;1.45;;;;;;;;;;4170611;34;20099;-65
2021/09/16 09:29:08;;;;;;;2.28;1.27;;;;;;;;;;4151521;34;20099;-65
2021/09/16 09:31:42;;;;;;;1.98;1.60;;;;;;;;;;4161550;34;20194;-65
2021/09/16 09:34:34;;;;;;;2.92;1.40;;;;;;;;;;4138152;34;20335;-65
2021/09/16 09:37:15;;;;;;;3.67;1.30;;;;;;;;;;4149610;34;20194;-65
2021/09/16 09:39:43;;;;;;;2.78;1.20;;;;;;;;;;4148671;34;20106;-65
2021/09/16 09:42:22;;;;;;;2.87;1.30;;;;;;;;;;4150201;34;20134;-64
2021/09/16 09:44:52;;;;;;;2.00;1.50;;;;;;;;;;4149322;34;20088;-67
2021/09/16 09:47:40;;;;;;;1.40;1.30;;;;;;;;;;4151188;34;20121;-67
2021/09/16 09:50:19;;;;;;;3.72;1.60;;;;;;;;;;4151344;34;20436;-64
2021/09/16 09:52:45;;;;;;;1.37;1.27;;;;;;;;;;4150885;34;20123;-64
2021/09/16 09:55:16;;;;;;;1.62;1.45;;;;;;;;;;4151151;34;20526;-64
2021/09/16 09:57:41;;;;;;;2.70;1.40;;;;;;;;;;4150933;34;20205;-64
2021/09/16 10:00:10;;;;;;;1.83;1.50;;;;;;;;;;4150886;34;20499;-64
2021/09/16 10:02:55;;;;;;;1.58;1.48;;;;;;;;;;4151047;34;20131;-63
2021/09/16 10:05:20;;;;;;;1.70;1.35;;;;;;;;;;4150689;34;20102;-64
2021/09/16 10:07:46;;;;;;;1.75;1.50;;;;;;;;;;4151025;34;20199;-65
2021/09/16 10:10:13;;;;;;;2.47;1.45;;;;;;;;;;4165489;34;20119;-66
2021/09/16 10:12:40;;;;;;;1.67;1.30;;;;;;;;;;4150976;34;20127;-66
2021/09/16 10:15:17;;;;;;;2.78;1.60;;;;;;;;;;4158956;34;20218;-64
2021/09/16 10:17:43;;;;;;;1.48;1.37;;;;;;;;;;4165784;34;20126;-64
2021/09/16 10:20:11;;;;;;;1.55;1.35;;;;;;;;;;4148750;34;20135;-65
2021/09/16 10:22:38;;;;;;;1.55;1.30;;;;;;;;;;4150803;34;20130;-64
2021/09/16 10:25:05;;;;;;;2.40;1.62;;;;;;;;;;4149571;34;20111;-64
2021/09/16 10:27:57;;;;;;;1.95;1.40;;;;;;;;;;4151152;34;20207;-64
2021/09/16 10:30:23;;;;;;;2.97;1.80;;;;;;;;;;4150651;34;20155;-64
2021/09/16 10:33:07;;;;;;;3.62;1.73;;;;;;;;;;4150887;34;20620;-64
2021/09/16 10:35:42;;;;;;;1.55;1.20;;;;;;;;;;4150662;34;20107;-63
2021/09/16 10:38:27;;;;;;;2.53;1.58;;;;;;;;;;4149722;34;20134;-63
2021/09/16 10:41:34;;;;;;;;;;;;;;;;;;4138037;34;20115;-64
2021/09/16 10:44:20;;;;;;;2.70;1.48;;;;;;;;;;4145997;34;20072;-63
2021/09/16 10:46:47;;;;;;;2.58;1.60;;;;;;;;;;4145491;34;20120;-64
2021/09/16 10:49:22;;;;;;;3.30;1.92;;;;;;;;;;4151061;34;20119;-64
2021/09/16 10:51:56;;;;;;;3.83;1.55;;;;;;;;;;4151138;34;20117;-64
2021/09/16 10:54:28;;;;;;;1.20;1.20;;;;;;;;;;4151091;34;20122;-65
2021/09/16 10:57:03;;;;;;;1.33;1.23;;;;;;;;;;4150675;34;20200;-65
2021/09/16 11:00:00;;;;;;;2.78;1.40;;;;;;;;;;4150115;34;20513;-65
2021/09/16 11:02:47;;;;;;;;;;;;;;;;;;4149872;34;20155;-64
2021/09/16 11:05:14;;;;;;;;;;;;;;;;;;4150175;34;19982;-64
2021/09/16 11:07:45;;;;;;;1.83;1.55;;;;;;;;;;4149751;34;20103;-64
2021/09/16 11:10:17;;;;;;;1.92;1.40;;;;;;;;;;4149614;34;20137;-64
2021/09/16 11:12:54;;;;;;;1.52;1.30;;;;;;;;;;4149337;34;20187;-64
2021/09/16 11:15:30;;;;;;;2.78;1.55;;;;;;;;;;4149627;34;20130;-64
2021/09/16 11:18:02;;;;;;;1.45;1.35;;;;;;;;;;4149496;34;20130;-64
2021/09/16 11:20:28;;;;;;;1.87;1.45;;;;;;;;;;4150774;34;20107;-65
2021/09/16 11:22:54;;;;;;;1.27;1.20;;;;;;;;;;4151010;34;20215;-64
2021/09/16 11:25:20;;;;;;;1.37;1.27;;;;;;;;;;4150580;34;20100;-64
2021/09/16 11:27:46;;;;;;;1.25;1.15;;;;;;;;;;4150867;34;20546;-64
2021/09/16 11:30:21;;;;;;;2.10;1.70;;;;;;;;;;4150779;34;20102;-64
2021/09/16 11:32:47;;;;;;;2.97;1.77;;;;;;;;;;4149236;34;20098;-64
2021/09/16 11:35:14;;;;;;;3.12;1.60;;;;;;;;;;4150642;34;20107;-64
2021/09/16 11:37:48;;;;;;;1.90;1.70;;;;;;;;;;4150699;34;20206;-64
2021/09/16 11:40:14;;;;;;;2.10;1.90;;;;;;;;;;4150711;34;20110;-64
2021/09/16 11:42:42;;;;;;;3.62;2.20;;;;;;;;;;4149913;34;20111;-64
2021/09/16 11:45:23;;;;;;;2.80;2.20;;;;;;;;;;4150255;34;20122;-64
2021/09/16 11:47:53;;;;;;;3.47;1.90;;;;;;;;;;4150511;34;20139;-64
2021/09/16 11:50:39;;;;;;;3.42;1.70;;;;;;;;;;4150450;34;20123;-64
2021/09/16 11:53:13;;;;;;;2.58;1.58;;;;;;;;;;4150705;34;20122;-64
2021/09/16 11:55:40;;;;;;;2.00;1.60;;;;;;;;;;4150255;34;20119;-64
2021/09/16 11:58:19;;;;;;;3.10;1.90;;;;;;;;;;4149099;34;20088;-64
2021/09/16 12:01:02;;;;;;;2.55;2.12;;;;;;;;;;4138866;34;20505;-64
2021/09/16 12:03:33;;;;;;;3.28;1.70;;;;;;;;;;4150261;34;20303;-64
2021/09/16 12:05:58;;;;;;;2.47;1.67;;;;;;;;;;4150168;34;20532;-64
2021/09/16 12:08:29;;;;;;;1.60;1.50;;;;;;;;;;4150421;34;20103;-64
2021/09/16 12:11:12;;;;;;;1.70;1.60;;;;;;;;;;4150081;34;20440;-64
2021/09/16 12:13:41;;;;;;;1.90;1.73;;;;;;;;;;4150158;34;20539;-64
2021/09/16 12:16:11;;;;;;;3.90;1.62;;;;;;;;;;4150283;34;20101;-64
2021/09/16 12:18:49;;;;;;;1.50;1.40;;;;;;;;;;4145227;34;20092;-64
2021/09/16 12:21:20;;;;;;;2.33;1.48;;;;;;;;;;4136615;34;20559;-64
2021/09/16 12:23:50;;;;;;;2.85;1.50;;;;;;;;;;4113443;34;20192;-64
2021/09/16 12:26:19;;;;;;;4.45;1.50;;;;;;;;;;4124503;34;20531;-64
2021/09/16 12:28:49;;;;;;;2.83;1.90;;;;;;;;;;4124169;34;20126;-64
2021/09/16 12:31:15;;;;;;;4.12;1.77;;;;;;;;;;4136620;34;20536;-64
2021/09/16 12:33:41;;;;;;;6.62;1.60;;;;;;;;;;4124090;34;20203;-64
2021/09/16 12:36:11;;;;;;;1.67;1.50;;;;;;;;;;4136542;34;20108;-64
2021/09/16 12:38:45;;;;;;;1.12;1.10;;;;;;;;;;4124039;34;20123;-64
2021/09/16 12:41:25;;;;;;;1.37;1.27;;;;;;;;;;4136510;34;20215;-64
2021/09/16 12:44:11;;;;;;;1.77;1.45;;;;;;;;;;4136654;34;20115;-64
2021/09/16 12:47:04;;;;;;;4.72;1.80;;;;;;;;;;4123183;34;20112;-64
2021/09/16 12:49:42;;;;;;;1.50;1.23;;;;;;;;;;4123269;34;20147;-64
2021/09/16 12:52:26;;;;;;;2.62;1.17;;;;;;;;;;4123336;34;20115;-65
2021/09/16 12:54:54;;;;;;;2.10;1.65;;;;;;;;;;4121671;34;20546;-66
2021/09/16 12:57:30;;;;;;;2.08;1.30;;;;;;;;;;4133683;34;20118;-67
2021/09/16 12:59:58;;;;;;;3.08;1.87;;;;;;;;;;4136355;34;20512;-67
2021/09/16 13:02:26;;;;;;;3.20;1.77;;;;;;;;;;4136260;34;20600;-68
2021/09/16 13:05:02;;;;;;;3.87;1.30;;;;;;;;;;4136168;34;20119;-63
2021/09/16 13:07:41;;;;;;;1.20;1.08;;;;;;;;;;4136169;34;20202;-61
2021/09/16 13:10:07;;;;;;;5.75;1.83;;;;;;;;;;4136070;34;20131;-62
2021/09/16 13:12:33;;;;;;;2.33;2.03;;;;;;;;;;4136073;34;20179;-62
2021/09/16 13:14:59;;;;;;;3.83;2.05;;;;;;;;;;4123604;34;20455;-67
2021/09/16 13:17:25;;;;;;;3.17;2.10;;;;;;;;;;4129281;34;20178;-67
2021/09/16 13:19:52;;;;;;;4.72;2.50;;;;;;;;;;4159331;34;20143;-66
2021/09/16 13:22:18;;;;;;;2.30;1.70;;;;;;;;;;4149777;34;20150;-67
2021/09/16 13:24:44;;;;;;;2.45;2.00;;;;;;;;;;4159251;34;20479;-67
2021/09/16 13:27:10;;;;;;;1.60;1.50;;;;;;;;;;4149473;34;20196;-64
2021/09/16 13:29:35;;;;;;;1.40;1.30;;;;;;;;;;4149483;34;20284;-68
2021/09/16 13:32:01;;;;;;;2.75;2.20;;;;;;;;;;4149558;34;20237;-64
2021/09/16 13:34:27;;;;;;;2.10;1.90;;;;;;;;;;4149840;34;20114;-64
2021/09/16 13:36:53;;;;;;;2.37;1.70;;;;;;;;;;4149527;34;20135;-64
2021/09/16 13:39:19;;;;;;;2.25;1.50;;;;;;;;;;4149240;34;20216;-64
2021/09/16 13:41:45;;;;;;;2.55;1.40;;;;;;;;;;4149665;34;20123;-63
2021/09/16 13:44:11;;;;;;;1.37;1.15;;;;;;;;;;4148850;34;20117;-65
2021/09/16 13:46:38;;;;;;;2.35;1.35;;;;;;;;;;4149655;34;20548;-63
2021/09/16 13:49:05;;;;;;;4.03;1.70;;;;;;;;;;4149392;34;20115;-63
2021/09/16 13:51:32;;;;;;;2.78;2.03;;;;;;;;;;4149408;34;20451;-61
2021/09/16 13:53:59;;;;;;;5.70;2.55;;;;;;;;;;4148067;34;20130;-65
2021/09/16 13:56:25;;;;;;;3.72;2.25;;;;;;;;;;4149293;34;20219;-64
2021/09/16 13:58:51;;;;;;;5.82;3.10;;;;;;;;;;4149500;34;20112;-62
2021/09/16 14:01:17;;;;;;;3.25;1.48;;;;;;;;;;4149431;34;20520;-65
2021/09/16 14:03:43;;;;;;;3.40;2.12;;;;;;;;;;4149434;34;20109;-62
2021/09/16 14:06:09;;;;;;;2.28;1.50;;;;;;;;;;4149292;34;20126;-67
2021/09/16 14:08:35;;;;;;;1.60;1.50;;;;;;;;;;4151366;34;20127;-67
2021/09/16 14:11:01;;;;;;;1.48;1.25;;;;;;;;;;4151195;34;20197;-67
2021/09/16 14:13:28;;;;;;;2.10;1.42;;;;;;;;;;4151319;34;20135;-66
2021/09/16 14:15:54;;;;;;;6.22;1.50;;;;;;;;;;4151313;34;20130;-63
2021/09/16 14:18:20;;;;;;;1.77;1.67;;;;;;;;;;4151145;34;20138;-67
2021/09/16 14:20:46;;;;;;;2.60;1.55;;;;;;;;;;4151242;34;20110;-64
2021/09/16 14:23:13;;;;;;;2.30;1.50;;;;;;;;;;4151547;34;20230;-62
2021/09/16 14:25:39;;;;;;;1.50;1.40;;;;;;;;;;4149987;34;20435;-67
2021/09/16 14:28:06;;;;;;;2.28;1.20;;;;;;;;;;4151151;34;20106;-67
2021/09/16 14:30:32;;;;;;;5.55;1.50;;;;;;;;;;4149957;34;20479;-68
2021/09/16 14:32:58;;;;;;;4.82;2.10;;;;;;;;;;4150972;34;20482;-67
2021/09/16 14:35:25;;;;;;;2.97;1.90;;;;;;;;;;4149723;34;20409;-68
2021/09/16 14:37:51;;;;;;;4.15;2.87;;;;;;;;;;4150988;34;20143;-68
2021/09/16 14:40:17;;;;;;;3.10;2.22;;;;;;;;;;4150980;34;20111;-66
2021/09/16 14:42:43;;;;;;;2.78;2.40;;;;;;;;;;4150899;34;20134;-68
2021/09/16 14:45:09;;;;;;;5.32;1.90;;;;;;;;;;4149389;34;20119;-68
2021/09/16 14:47:35;;;;;;;1.58;1.48;;;;;;;;;;4150990;34;20115;-68
2021/09/16 14:50:01;;;;;;;4.07;1.52;;;;;;;;;;4151041;34;20095;-66
2021/09/16 14:52:27;;;;;;;1.75;1.40;;;;;;;;;;4149613;34;20125;-67
2021/09/16 14:54:53;;;;;;;4.05;1.40;;;;;;;;;;4151094;34;20112;-67
2021/09/16 14:57:19;;;;;;;1.73;1.50;;;;;;;;;;4149479;34;20211;-67
2021/09/16 14:59:45;;;;;;;3.12;1.35;;;;;;;;;;4151050;34;20525;-67
2021/09/16 15:02:11;;;;;;;2.97;1.70;;;;;;;;;;4151186;34;20119;-68
2021/09/16 15:04:37;;;;;;;2.35;1.75;;;;;;;;;;4150694;34;20115;-67